createdAt,value
2024-05-09T00:02:29.832Z,21.17
2024-05-09T00:05:20.979Z,16.87
2024-05-09T00:08:10.256Z,21.70
2024-05-09T00:10:58.629Z,18.87
2024-05-09T00:13:46.908Z,20.13
2024-05-09T00:16:35.006Z,18.17
2024-05-09T00:19:23.066Z,17.37
2024-05-09T00:22:14.048Z,18.80
2024-05-09T00:25:02.324Z,19.13
2024-05-09T00:27:50.610Z,15.40
2024-05-09T00:30:38.898Z,15.23
2024-05-09T00:33:26.966Z,16.60
2024-05-09T00:36:15.373Z,19.33
2024-05-09T00:39:06.712Z,17.50
2024-05-09T00:41:54.761Z,16.97
2024-05-09T00:44:42.675Z,16.43
2024-05-09T00:47:31.048Z,17.17
2024-05-09T00:50:25.872Z,19.60
2024-05-09T00:53:22.220Z,17.23
2024-05-09T00:56:14.476Z,15.77
2024-05-09T00:59:03.397Z,15.33
2024-05-09T01:01:52.569Z,14.23
2024-05-09T01:04:40.853Z,18.07
2024-05-09T01:07:29.155Z,15.87
2024-05-09T01:10:24.010Z,17.80
2024-05-09T01:13:18.975Z,16.90
2024-05-09T01:16:07.680Z,20.90
2024-05-09T01:18:56.358Z,20.03
2024-05-09T01:21:44.703Z,17.73
2024-05-09T01:24:35.299Z,13.97
2024-05-09T01:27:23.813Z,17.67
2024-05-09T01:30:17.285Z,16.10
2024-05-09T01:33:11.856Z,17.77
2024-05-09T01:36:01.061Z,14.33
2024-05-09T01:38:49.312Z,13.40
2024-05-09T01:41:40.208Z,17.00
2024-05-09T01:44:28.238Z,15.97
2024-05-09T01:47:16.856Z,11.57
2024-05-09T01:50:08.995Z,15.30
2024-05-09T01:52:59.268Z,13.03
2024-05-09T01:55:47.190Z,17.80
2024-05-09T01:58:38.673Z,13.80
2024-05-09T02:01:26.889Z,14.27
2024-05-09T02:04:15.362Z,14.37
2024-05-09T02:07:03.637Z,12.87
2024-05-09T02:09:54.293Z,12.47
2024-05-09T02:12:42.929Z,13.73
2024-05-09T02:15:33.686Z,13.47
2024-05-09T02:18:22.134Z,14.10
2024-05-09T02:21:11.555Z,13.03
2024-05-09T02:23:59.985Z,16.23
2024-05-09T02:26:48.047Z,14.73
2024-05-09T02:29:37.409Z,12.37
2024-05-09T02:32:28.414Z,14.37
2024-05-09T02:35:16.817Z,15.17
2024-05-09T02:38:05.150Z,14.43
2024-05-09T02:40:50.960Z,14.07
2024-05-09T02:43:39.098Z,15.13
2024-05-09T02:46:24.556Z,12.57
2024-05-09T02:49:15.909Z,14.13
2024-05-09T02:52:01.622Z,13.93
2024-05-09T02:54:49.959Z,12.40
2024-05-09T02:57:35.565Z,12.60
2024-05-09T03:00:29.914Z,12.97
2024-05-09T03:03:23.365Z,14.47
2024-05-09T03:06:14.572Z,17.90
2024-05-09T03:09:01.767Z,13.37
2024-05-09T03:11:49.968Z,12.43
2024-05-09T03:14:35.487Z,13.17
2024-05-09T03:17:24.035Z,13.40
2024-05-09T03:20:17.525Z,12.97
2024-05-09T03:23:14.180Z,13.33
2024-05-09T03:25:59.982Z,12.73
2024-05-09T03:28:48.609Z,13.83
2024-05-09T03:31:34.191Z,16.30
2024-05-09T03:34:22.384Z,16.60
2024-05-09T03:37:13.372Z,12.63
2024-05-09T03:40:07.345Z,18.90
2024-05-09T03:43:00.225Z,12.93
2024-05-09T03:45:49.897Z,16.50
2024-05-09T03:48:35.873Z,12.73
2024-05-09T03:51:24.278Z,15.83
2024-05-09T03:54:09.483Z,13.40
2024-05-09T03:57:00.447Z,16.00
2024-05-09T03:59:45.991Z,13.70
2024-05-09T04:02:34.207Z,10.87
2024-05-09T04:05:20.074Z,14.93
2024-05-09T04:08:08.949Z,16.90
2024-05-09T04:10:54.505Z,11.17
2024-05-09T04:13:45.805Z,16.23
2024-05-09T04:16:31.605Z,14.30
2024-05-09T04:19:20.278Z,12.33
2024-05-09T04:22:06.091Z,10.30
2024-05-09T04:24:55.493Z,14.10
2024-05-09T04:27:41.041Z,12.77
2024-05-09T04:30:37.957Z,13.77
2024-05-09T04:33:26.712Z,11.27
2024-05-09T04:36:15.451Z,14.53
2024-05-09T04:39:00.855Z,12.30
2024-05-09T04:41:49.173Z,14.73
2024-05-09T04:44:34.908Z,15.17
2024-05-09T04:47:26.467Z,15.43
2024-05-09T04:50:20.983Z,11.53
2024-05-09T04:53:16.434Z,12.27
2024-05-09T04:56:05.045Z,15.13
2024-05-09T04:58:50.868Z,14.33
2024-05-09T05:01:39.362Z,19.50
2024-05-09T05:04:28.043Z,16.00
2024-05-09T05:07:16.124Z,11.63
2024-05-09T05:10:01.749Z,12.70
2024-05-09T05:13:06.077Z,19.70
2024-05-09T05:15:57.442Z,14.60
2024-05-09T05:18:44.523Z,15.00
2024-05-09T05:21:35.267Z,11.47
2024-05-09T05:24:20.705Z,16.83
2024-05-09T05:27:09.328Z,14.57
2024-05-09T05:29:54.898Z,15.23
2024-05-09T05:32:43.064Z,16.37
2024-05-09T05:35:28.655Z,14.30
2024-05-09T05:38:23.760Z,15.40
2024-05-09T05:41:11.849Z,16.30
2024-05-09T05:44:00.435Z,16.43
2024-05-09T05:46:46.461Z,17.40
2024-05-09T05:49:34.634Z,14.40
2024-05-09T05:52:20.451Z,19.83
2024-05-09T05:55:11.628Z,14.77
2024-05-09T05:57:57.066Z,15.93
2024-05-09T06:00:45.385Z,15.57
2024-05-09T06:03:31.368Z,18.03
2024-05-09T06:06:19.790Z,19.23
2024-05-09T06:09:05.646Z,17.00
2024-05-09T06:11:56.771Z,17.53
2024-05-09T06:14:42.464Z,19.23
2024-05-09T06:17:31.202Z,19.90
2024-05-09T06:20:23.859Z,19.83
2024-05-09T06:23:20.038Z,18.20
2024-05-09T06:26:05.704Z,13.47
2024-05-09T06:28:56.565Z,18.87
2024-05-09T06:31:42.185Z,18.13
2024-05-09T06:34:30.371Z,20.97
2024-05-09T06:37:16.123Z,17.43
2024-05-09T06:40:05.545Z,15.97
2024-05-09T06:42:54.689Z,23.27
2024-05-09T06:45:46.763Z,16.87
2024-05-09T06:48:32.466Z,17.43
2024-05-09T06:51:21.188Z,17.43
2024-05-09T06:54:07.442Z,15.97
2024-05-09T06:56:55.497Z,16.23
2024-05-09T06:59:41.345Z,14.00
2024-05-09T07:02:32.300Z,18.90
2024-05-09T07:05:20.702Z,17.33
2024-05-09T07:08:07.400Z,14.20
2024-05-09T07:10:55.865Z,13.57
2024-05-09T07:13:41.507Z,13.40
2024-05-09T07:16:29.539Z,13.67
2024-05-09T07:19:17.901Z,13.30
2024-05-09T07:22:06.758Z,16.30
2024-05-09T07:24:53.696Z,16.33
2024-05-09T07:27:41.593Z,13.73
2024-05-09T07:30:33.038Z,12.90
2024-05-09T07:33:24.671Z,13.97
2024-05-09T07:36:13.416Z,12.83
2024-05-09T07:39:01.753Z,14.63
2024-05-09T07:41:47.055Z,13.67
2024-05-09T07:44:35.881Z,17.93
2024-05-09T07:48:32.087Z,13.13
2024-05-09T07:53:38.692Z,16.13
2024-05-09T07:56:29.092Z,12.97
2024-05-09T07:59:14.561Z,10.87
2024-05-09T08:02:02.717Z,12.90
2024-05-09T08:04:48.674Z,11.63
2024-05-09T08:07:39.278Z,12.53
2024-05-09T08:10:29.143Z,11.40
2024-05-09T08:13:17.739Z,13.47
2024-05-09T08:16:04.042Z,13.93
2024-05-09T08:18:52.575Z,10.27
2024-05-09T08:21:38.639Z,11.43
2024-05-09T08:24:27.170Z,10.30
2024-05-09T08:27:15.802Z,13.87
2024-05-09T08:30:04.889Z,8.13
2024-05-09T08:32:51.899Z,7.47
2024-05-09T08:35:40.349Z,13.13
2024-05-09T08:38:28.583Z,10.33
2024-05-09T08:41:14.692Z,10.30
2024-05-09T08:44:05.661Z,10.20
2024-05-09T08:46:52.359Z,9.90
2024-05-09T08:49:41.559Z,10.10
2024-05-09T08:52:27.157Z,12.50
2024-05-09T08:55:15.750Z,9.17
2024-05-09T08:58:04.257Z,10.40
2024-05-09T09:00:55.880Z,7.27
2024-05-09T09:03:43.646Z,8.97
2024-05-09T09:06:32.628Z,8.60
2024-05-09T09:09:18.486Z,9.80
2024-05-09T09:12:10.728Z,8.53
2024-05-09T09:14:56.408Z,8.87
2024-05-09T09:17:56.977Z,9.10
2024-05-09T09:20:45.616Z,7.40
2024-05-09T09:23:31.798Z,8.30
2024-05-09T09:26:21.032Z,7.37
2024-05-09T09:29:06.756Z,9.37
2024-05-09T09:32:00.950Z,8.47
2024-05-09T09:34:52.978Z,8.23
2024-05-09T09:37:38.676Z,10.70
2024-05-09T09:40:32.853Z,7.33
2024-05-09T09:43:22.425Z,8.33
2024-05-09T09:46:12.848Z,7.73
2024-05-09T09:49:01.502Z,8.73
2024-05-09T09:51:49.594Z,10.67
2024-05-09T09:54:38.117Z,11.77
2024-05-09T09:57:24.888Z,9.47
2024-05-09T10:00:21.116Z,7.53
2024-05-09T10:03:15.008Z,12.17
2024-05-09T10:06:01.015Z,9.87
2024-05-09T10:08:52.906Z,9.07
2024-05-09T10:11:45.194Z,8.50
2024-05-09T10:14:43.195Z,10.53
2024-05-09T10:17:28.919Z,10.47
2024-05-09T10:20:21.959Z,9.37
2024-05-09T10:23:27.209Z,8.87
2024-05-09T10:26:15.194Z,12.00
2024-05-09T10:29:04.685Z,10.87
2024-05-09T10:31:50.286Z,8.77
2024-05-09T10:34:39.194Z,10.87
2024-05-09T10:37:26.182Z,8.30
2024-05-09T10:40:26.107Z,11.33
2024-05-09T10:43:22.418Z,7.97
2024-05-09T10:46:12.082Z,8.47
2024-05-09T10:48:59.662Z,9.50
2024-05-09T10:51:50.598Z,6.10
2024-05-09T10:54:36.718Z,7.30
2024-05-09T10:57:27.027Z,8.33
2024-05-09T11:00:23.330Z,9.20
2024-05-09T11:03:19.105Z,8.07
2024-05-09T11:06:06.257Z,9.97
2024-05-09T11:08:54.745Z,7.83
2024-05-09T11:11:40.200Z,8.97
2024-05-09T11:14:28.772Z,7.43
2024-05-09T11:17:17.116Z,8.93
2024-05-09T11:20:13.546Z,8.90
2024-05-09T11:23:05.324Z,7.37
2024-05-09T11:25:54.676Z,8.90
2024-05-09T11:28:44.171Z,6.87
2024-05-09T11:31:32.322Z,9.20
2024-05-09T11:34:20.616Z,9.27
2024-05-09T11:37:09.045Z,7.40
2024-05-09T11:39:55.050Z,6.87
2024-05-09T11:42:43.086Z,8.00
2024-05-09T11:45:28.556Z,7.60
2024-05-09T11:48:16.954Z,7.90
2024-05-09T11:51:05.639Z,7.83
2024-05-09T11:53:53.570Z,8.53
2024-05-09T11:56:39.322Z,8.00
2024-05-09T11:59:28.051Z,14.30
2024-05-09T12:02:16.190Z,7.90
2024-05-09T12:05:01.791Z,6.40
2024-05-09T12:07:53.135Z,7.63
2024-05-09T12:10:38.575Z,6.93
2024-05-09T12:13:26.750Z,7.27
2024-05-09T12:16:12.593Z,5.87
2024-05-09T12:19:00.949Z,6.97
2024-05-09T12:21:46.813Z,6.53
2024-05-09T12:24:37.783Z,6.40
2024-05-09T12:27:23.118Z,8.00
2024-05-09T12:30:20.631Z,6.67
2024-05-09T12:33:12.726Z,8.07
2024-05-09T12:36:01.658Z,8.10
2024-05-09T12:38:47.006Z,9.33
2024-05-09T12:41:38.305Z,5.93
2024-05-09T12:44:23.552Z,4.70
2024-05-09T12:47:11.682Z,8.10
2024-05-09T12:49:59.798Z,7.83
2024-05-09T12:52:45.228Z,6.20
2024-05-09T12:55:41.436Z,6.77
2024-05-09T12:58:36.769Z,7.63
2024-05-09T13:01:25.046Z,6.40
2024-05-09T13:04:10.545Z,6.17
2024-05-09T13:06:58.874Z,6.47
2024-05-09T13:09:44.386Z,7.23
2024-05-09T13:12:32.845Z,6.30
2024-05-09T13:15:21.057Z,6.20
2024-05-09T13:18:09.627Z,6.17
2024-05-09T13:20:55.520Z,7.53
2024-05-09T13:23:43.718Z,8.47
2024-05-09T13:26:29.290Z,11.23
2024-05-09T13:29:17.342Z,6.32
2024-05-09T13:32:06.272Z,5.35
2024-05-09T13:34:54.841Z,7.18
2024-05-09T13:37:40.525Z,6.93
2024-05-09T13:40:33.617Z,8.05
2024-05-09T13:43:23.160Z,8.70
2024-05-09T13:46:12.339Z,6.65
2024-05-09T13:49:01.238Z,6.17
2024-05-09T13:51:49.385Z,6.60
2024-05-09T13:54:34.867Z,6.93
2024-05-09T13:57:23.340Z,7.63
2024-05-09T14:00:22.314Z,7.17
2024-05-09T14:03:19.857Z,5.43
2024-05-09T14:06:13.069Z,7.37
2024-05-09T14:09:01.409Z,6.23
2024-05-09T14:11:47.095Z,7.93
2024-05-09T14:14:35.301Z,6.80
2024-05-09T14:17:20.549Z,8.20
2024-05-09T14:20:14.070Z,5.30
2024-05-09T14:23:08.057Z,5.73
2024-05-09T14:25:54.251Z,6.33
2024-05-09T14:28:45.339Z,5.77
2024-05-09T14:31:31.033Z,6.40
2024-05-09T14:34:19.792Z,5.03
2024-05-09T14:37:05.737Z,5.88
2024-05-09T14:39:56.709Z,5.00
2024-05-09T14:42:42.681Z,6.85
2024-05-09T14:45:31.032Z,7.60
2024-05-09T14:48:16.760Z,6.47
2024-05-09T14:51:05.449Z,6.38
2024-05-09T14:53:50.942Z,7.25
2024-05-09T14:56:41.797Z,7.15
2024-05-09T14:59:27.531Z,5.03
2024-05-09T15:02:15.804Z,6.07
2024-05-09T15:05:04.060Z,8.88
2024-05-09T15:07:50.031Z,4.68
2024-05-09T15:10:38.641Z,6.05
2024-05-09T15:13:27.221Z,7.50
2024-05-09T15:16:15.269Z,6.80
2024-05-09T15:19:01.471Z,9.40
2024-05-09T15:21:50.085Z,8.70
2024-05-09T15:24:35.725Z,7.03
2024-05-09T15:27:23.948Z,8.25
2024-05-09T15:30:13.275Z,9.40
2024-05-09T15:33:05.915Z,12.27
2024-05-09T15:35:52.788Z,10.07
2024-05-09T15:38:40.855Z,9.25
2024-05-09T15:41:26.610Z,12.57
2024-05-09T15:44:15.215Z,11.10
2024-05-09T15:47:04.055Z,7.88
2024-05-09T15:49:52.390Z,8.63
2024-05-09T15:52:38.052Z,6.63
2024-05-09T15:55:27.571Z,7.30
2024-05-09T15:58:17.290Z,7.03
2024-05-09T16:01:03.379Z,12.13
2024-05-09T16:03:54.228Z,5.10
2024-05-09T16:06:40.018Z,7.33
2024-05-09T16:09:28.734Z,6.77
2024-05-09T16:12:14.122Z,7.67
2024-05-09T16:15:02.159Z,8.10
2024-05-09T16:17:48.055Z,7.93
2024-05-09T16:20:41.538Z,6.67
2024-05-09T16:23:29.191Z,4.40
2024-05-09T16:26:17.498Z,6.87
2024-05-09T16:29:03.418Z,6.07
2024-05-09T16:31:52.079Z,8.70
2024-05-09T16:34:37.853Z,6.80
2024-05-09T16:37:29.834Z,7.43
2024-05-09T16:40:25.133Z,5.93
2024-05-09T16:43:22.128Z,8.40
2024-05-09T16:46:08.907Z,6.40
2024-05-09T16:48:57.669Z,11.63
2024-05-09T16:51:43.495Z,7.33
2024-05-09T16:54:34.519Z,8.37
2024-05-09T16:57:20.284Z,5.90
2024-05-09T17:00:18.113Z,7.20
2024-05-09T17:03:14.301Z,6.67
2024-05-09T17:06:05.464Z,5.97
2024-05-09T17:08:51.143Z,7.23
2024-05-09T17:11:41.906Z,7.50
2024-05-09T17:14:30.485Z,6.27
2024-05-09T17:17:18.553Z,7.50
2024-05-09T17:20:10.458Z,8.03
2024-05-09T17:23:02.159Z,7.47
2024-05-09T17:25:50.572Z,9.30
2024-05-09T17:28:38.907Z,5.43
2024-05-09T17:31:27.403Z,6.70
2024-05-09T17:34:13.540Z,7.07
2024-05-09T17:37:02.924Z,7.60
2024-05-09T17:39:48.746Z,6.80
2024-05-09T17:42:36.632Z,11.10
2024-05-09T17:45:25.053Z,6.67
2024-05-09T17:48:13.928Z,5.50
2024-05-09T17:51:02.506Z,5.77
2024-05-09T17:53:48.068Z,7.03
2024-05-09T17:56:36.545Z,6.50
2024-05-09T17:59:21.955Z,5.53
2024-05-09T18:02:12.945Z,6.63
2024-05-09T18:04:58.891Z,3.87
2024-05-09T18:07:47.286Z,5.50
2024-05-09T18:10:37.166Z,4.67
2024-05-09T18:13:27.528Z,4.10
2024-05-09T18:16:13.489Z,8.43
2024-05-09T18:19:04.768Z,6.67
2024-05-09T18:21:50.687Z,4.53
2024-05-09T18:24:38.791Z,5.73
2024-05-09T18:27:24.778Z,4.20
2024-05-09T18:30:24.055Z,4.80
2024-05-09T18:33:16.939Z,2.87
2024-05-09T18:36:06.036Z,3.83
2024-05-09T18:38:54.080Z,3.30
2024-05-09T18:41:39.760Z,9.30
2024-05-09T18:44:28.047Z,5.07
2024-05-09T18:47:15.310Z,4.47
2024-05-09T18:50:08.963Z,3.57
2024-05-09T18:53:05.952Z,3.80
2024-05-09T18:55:54.300Z,5.40
2024-05-09T18:58:39.990Z,4.27
2024-05-09T19:01:28.749Z,7.67
2024-05-09T19:04:18.236Z,6.13
2024-05-09T19:07:09.404Z,4.63
2024-05-09T19:09:57.784Z,5.10
2024-05-09T19:12:46.399Z,5.50
2024-05-09T19:15:32.189Z,5.33
2024-05-09T19:18:20.496Z,4.90
2024-05-09T19:21:06.320Z,6.07
2024-05-09T19:23:55.503Z,6.40
2024-05-09T19:26:44.091Z,6.07
2024-05-09T19:29:31.999Z,6.53
2024-05-09T19:32:17.503Z,5.90
2024-05-09T19:35:05.652Z,6.77
2024-05-09T19:37:52.578Z,7.30
2024-05-09T19:40:43.157Z,7.57
2024-05-09T19:43:34.610Z,6.70
2024-05-09T19:46:24.315Z,9.53
2024-05-09T19:49:10.753Z,6.77
2024-05-09T19:51:59.671Z,6.97
2024-05-09T19:54:49.508Z,7.17
2024-05-09T19:57:37.738Z,9.30
2024-05-09T20:00:32.734Z,11.63
2024-05-09T20:03:24.291Z,8.77
2024-05-09T20:06:10.241Z,8.53
2024-05-09T20:08:59.577Z,8.27
2024-05-09T20:11:45.041Z,8.77
2024-05-09T20:14:33.523Z,7.53
2024-05-09T20:17:21.746Z,10.30
2024-05-09T20:20:20.117Z,8.10
2024-05-09T20:23:13.622Z,10.63
2024-05-09T20:26:01.836Z,10.27
2024-05-09T20:28:49.947Z,8.23
2024-05-09T20:31:35.313Z,6.77
2024-05-09T20:34:26.153Z,8.47
2024-05-09T20:37:11.803Z,7.73
2024-05-09T20:40:00.108Z,8.97
2024-05-09T20:42:45.526Z,10.23
2024-05-09T20:45:33.847Z,8.00
2024-05-09T20:48:19.454Z,7.60
2024-05-09T20:51:12.885Z,6.70
2024-05-09T20:53:58.376Z,7.47
2024-05-09T20:56:46.727Z,8.07
2024-05-09T20:59:32.332Z,11.50
2024-05-09T21:02:21.076Z,8.93
2024-05-09T21:05:07.571Z,6.83
2024-05-09T21:07:58.217Z,9.30
2024-05-09T21:10:44.145Z,9.97
2024-05-09T21:13:32.444Z,8.43
2024-05-09T21:16:18.280Z,8.77
2024-05-09T21:19:06.765Z,8.43
2024-05-09T21:21:53.453Z,7.03
2024-05-09T21:24:44.186Z,9.17
2024-05-09T21:27:30.016Z,8.10
2024-05-09T21:30:27.340Z,11.07
2024-05-09T21:33:19.165Z,7.53
2024-05-09T21:36:08.422Z,8.80
2024-05-09T21:38:54.095Z,10.63
2024-05-09T21:41:44.819Z,7.90
2024-05-09T21:44:30.327Z,10.67
2024-05-09T21:47:18.286Z,9.13
2024-05-09T21:50:06.101Z,8.77
2024-05-09T21:52:55.877Z,6.70
2024-05-09T21:55:41.609Z,6.37
2024-05-09T21:58:32.229Z,8.90
2024-05-09T22:01:18.682Z,7.37
2024-05-09T22:04:07.176Z,8.27
2024-05-09T22:06:52.587Z,7.40
2024-05-09T22:09:45.370Z,7.73
2024-05-09T22:12:31.139Z,6.63
2024-05-09T22:15:22.090Z,9.73
2024-05-09T22:18:09.151Z,10.70
2024-05-09T22:20:58.521Z,9.30
2024-05-09T22:23:44.367Z,9.30
2024-05-09T22:26:32.730Z,10.87
2024-05-09T22:29:18.101Z,8.50
2024-05-09T22:32:10.581Z,7.67
2024-05-09T22:34:57.015Z,8.20
2024-05-09T22:37:45.135Z,7.33
2024-05-09T22:40:39.143Z,8.60
2024-05-09T22:43:35.229Z,10.67
2024-05-09T22:46:20.503Z,7.97
2024-05-09T22:49:11.919Z,12.93
2024-05-09T22:51:57.607Z,9.77
2024-05-09T22:54:46.071Z,8.40
2024-05-09T22:57:34.702Z,9.30
2024-05-09T23:00:29.177Z,9.33
2024-05-09T23:03:21.700Z,9.07
2024-05-09T23:06:10.339Z,8.83
2024-05-09T23:08:58.824Z,9.73
2024-05-09T23:11:45.784Z,8.07
2024-05-09T23:14:34.692Z,8.40
2024-05-09T23:17:20.484Z,9.73
2024-05-09T23:20:11.640Z,8.00
2024-05-09T23:23:00.354Z,7.73
2024-05-09T23:25:48.556Z,8.73
2024-05-09T23:28:33.860Z,8.37
2024-05-09T23:31:22.133Z,9.90
2024-05-09T23:34:07.857Z,13.00
2024-05-09T23:36:58.452Z,9.70
2024-05-09T23:39:46.736Z,9.27
2024-05-09T23:42:34.984Z,9.03
2024-05-09T23:45:20.219Z,8.33
2024-05-09T23:48:09.464Z,6.63
2024-05-09T23:50:58.034Z,7.90
2024-05-09T23:53:44.829Z,8.83
2024-05-09T23:56:35.384Z,8.27
2024-05-09T23:59:20.646Z,9.40
